createdAt,value
2019-03-06T00:02:15.277Z,33.67
2019-03-06T00:04:46.092Z,36.57
2019-03-06T00:07:16.556Z,32.07
2019-03-06T00:12:16.851Z,34.13
2019-03-06T00:14:46.306Z,34.03
2019-03-06T00:17:15.840Z,35.00
2019-03-06T00:19:45.324Z,35.80
2019-03-06T00:22:14.793Z,34.03
2019-03-06T00:24:44.606Z,33.60
2019-03-06T00:27:13.986Z,36.40
2019-03-06T00:29:43.408Z,38.77
2019-03-06T00:32:12.768Z,35.73
2019-03-06T00:34:42.308Z,35.33
2019-03-06T00:37:11.667Z,35.80
2019-03-06T00:39:48.733Z,35.43
2019-03-06T00:42:18.225Z,36.80
2019-03-06T00:44:47.657Z,38.67
2019-03-06T00:47:17.085Z,36.73
2019-03-06T00:49:46.439Z,41.43
2019-03-06T00:52:15.890Z,38.57
2019-03-06T00:54:45.313Z,36.70
2019-03-06T00:57:14.651Z,36.27
2019-03-06T00:59:44.248Z,32.93
2019-03-06T01:02:13.647Z,38.97
2019-03-06T01:04:43.147Z,30.17
2019-03-06T01:07:12.456Z,30.93
2019-03-06T01:09:41.900Z,31.47
2019-03-06T01:12:11.587Z,28.63
2019-03-06T01:14:41.132Z,28.70
2019-03-06T01:17:10.483Z,27.07
2019-03-06T01:19:39.874Z,27.87
2019-03-06T01:22:09.243Z,26.43
2019-03-06T01:24:38.731Z,28.00
2019-03-06T01:27:08.108Z,25.47
2019-03-06T01:29:37.525Z,26.23
2019-03-06T01:32:07.227Z,25.27
2019-03-06T01:35:01.525Z,26.97
2019-03-06T01:37:49.866Z,27.90
2019-03-06T01:40:41.252Z,27.43
2019-03-06T01:43:17.441Z,27.70
2019-03-06T01:45:46.979Z,28.57
2019-03-06T01:48:16.549Z,30.93
2019-03-06T01:50:45.983Z,28.97
2019-03-06T01:53:15.361Z,33.23
2019-03-06T01:55:44.817Z,29.60
2019-03-06T01:58:14.155Z,26.80
2019-03-06T02:00:44.364Z,26.47
2019-03-06T02:03:13.736Z,30.27
2019-03-06T02:05:43.236Z,28.40
2019-03-06T02:08:13.621Z,26.80
2019-03-06T02:10:43.176Z,30.00
2019-03-06T02:13:12.921Z,29.33
2019-03-06T02:15:42.302Z,26.53
2019-03-06T02:18:11.680Z,29.27
2019-03-06T02:20:41.066Z,29.13
2019-03-06T02:23:10.548Z,29.10
2019-03-06T02:25:40.076Z,30.50
2019-03-06T02:28:09.520Z,34.53
2019-03-06T02:30:38.988Z,36.37
2019-03-06T02:33:08.331Z,39.07
2019-03-06T02:35:38.025Z,39.40
2019-03-06T02:38:08.014Z,38.43
2019-03-06T02:40:37.298Z,37.67
2019-03-06T02:43:06.883Z,35.20
2019-03-06T02:45:36.179Z,36.67
2019-03-06T02:48:05.601Z,37.70
2019-03-06T02:50:35.016Z,32.33
2019-03-06T02:53:04.479Z,35.23
2019-03-06T02:55:33.886Z,31.37
2019-03-06T02:58:10.030Z,33.70
2019-03-06T03:00:57.784Z,33.73
2019-03-06T03:03:49.367Z,32.50
2019-03-06T03:06:24.258Z,32.80
2019-03-06T03:08:53.997Z,32.63
2019-03-06T03:11:23.561Z,33.13
2019-03-06T03:13:52.959Z,33.23
2019-03-06T03:16:22.739Z,32.20
2019-03-06T03:18:52.087Z,35.03
2019-03-06T03:21:21.460Z,36.13
2019-03-06T03:23:50.910Z,38.53
2019-03-06T03:26:20.370Z,35.40
2019-03-06T03:28:49.776Z,33.97
2019-03-06T03:31:19.285Z,33.50
2019-03-06T03:33:48.719Z,36.73
2019-03-06T03:36:18.044Z,34.37
2019-03-06T03:38:47.352Z,34.50
2019-03-06T03:41:16.735Z,34.87
2019-03-06T03:43:46.025Z,34.80
2019-03-06T03:46:15.423Z,35.27
2019-03-06T03:48:44.842Z,32.57
2019-03-06T03:51:14.472Z,36.67
2019-03-06T03:53:44.013Z,32.63
2019-03-06T03:56:13.509Z,33.47
2019-03-06T03:58:42.922Z,30.47
2019-03-06T04:01:20.982Z,31.27
2019-03-06T04:03:50.503Z,31.17
2019-03-06T04:06:20.103Z,33.37
2019-03-06T04:08:49.607Z,36.53
2019-03-06T04:11:19.033Z,37.70
2019-03-06T04:13:48.427Z,33.47
2019-03-06T04:16:17.863Z,33.93
2019-03-06T04:18:47.392Z,34.90
2019-03-06T04:21:16.769Z,33.23
2019-03-06T04:23:46.074Z,36.40
2019-03-06T04:26:15.409Z,35.43
2019-03-06T04:28:44.845Z,35.80
2019-03-06T04:31:14.695Z,36.47
2019-03-06T04:33:44.087Z,35.97
2019-03-06T04:36:13.498Z,34.77
2019-03-06T04:38:43.809Z,37.83
2019-03-06T04:41:13.439Z,35.83
2019-03-06T04:43:43.036Z,37.30
2019-03-06T04:46:12.414Z,39.87
2019-03-06T04:48:41.840Z,38.40
2019-03-06T04:51:13.108Z,39.20
2019-03-06T04:53:42.357Z,42.67
2019-03-06T04:56:11.746Z,41.10
2019-03-06T04:58:41.280Z,46.63
2019-03-06T05:01:10.864Z,46.27
2019-03-06T05:03:40.211Z,43.60
2019-03-06T05:06:09.849Z,43.63
2019-03-06T05:08:39.215Z,40.83
2019-03-06T05:11:08.609Z,41.00
2019-03-06T05:13:38.206Z,39.33
2019-03-06T05:16:07.742Z,40.53
2019-03-06T05:18:47.607Z,38.60
2019-03-06T05:21:22.876Z,40.87
2019-03-06T05:23:52.288Z,41.47
2019-03-06T05:26:21.682Z,39.20
2019-03-06T05:28:51.411Z,40.37
2019-03-06T05:31:21.037Z,41.97
2019-03-06T05:33:50.418Z,42.23
2019-03-06T05:37:06.536Z,41.33
2019-03-06T05:39:35.903Z,45.53
2019-03-06T05:42:05.179Z,41.17
2019-03-06T05:44:34.889Z,39.57
2019-03-06T05:47:04.520Z,41.97
2019-03-06T05:49:33.991Z,41.03
2019-03-06T05:52:03.542Z,44.40
2019-03-06T05:54:33.014Z,42.23
2019-03-06T05:57:02.885Z,43.93
2019-03-06T05:59:32.503Z,44.23
2019-03-06T06:02:01.912Z,43.57
2019-03-06T06:04:31.383Z,44.27
2019-03-06T06:07:00.789Z,44.70
2019-03-06T06:09:30.222Z,45.80
2019-03-06T06:11:59.737Z,47.80
2019-03-06T06:14:29.146Z,45.30
2019-03-06T06:16:58.632Z,44.97
2019-03-06T06:19:27.895Z,43.77
2019-03-06T06:22:12.832Z,44.73
2019-03-06T06:24:43.150Z,43.13
2019-03-06T06:27:12.789Z,45.60
2019-03-06T06:29:42.280Z,44.17
2019-03-06T06:32:11.661Z,45.20
2019-03-06T06:34:41.040Z,47.03
2019-03-06T06:37:10.497Z,47.97
2019-03-06T06:39:39.872Z,51.00
2019-03-06T06:42:09.622Z,55.83
2019-03-06T06:44:39.322Z,53.07
2019-03-06T06:47:08.958Z,58.30
2019-03-06T06:49:38.436Z,54.87
2019-03-06T06:52:33.540Z,47.97
2019-03-06T06:55:15.919Z,46.67
2019-03-06T06:58:31.080Z,45.73
2019-03-06T07:01:17.389Z,46.50
2019-03-06T07:04:36.495Z,42.23
2019-03-06T07:07:27.807Z,39.67
2019-03-06T07:10:25.254Z,37.60
2019-03-06T07:13:09.855Z,32.47
2019-03-06T07:16:13.321Z,34.47
2019-03-06T07:19:01.981Z,32.20
2019-03-06T07:21:59.469Z,28.60
2019-03-06T07:24:53.901Z,28.17
2019-03-06T07:27:44.007Z,27.40
2019-03-06T07:30:31.684Z,24.07
2019-03-06T07:33:26.364Z,23.13
2019-03-06T07:36:19.325Z,23.63
2019-03-06T07:38:52.464Z,25.13
2019-03-06T07:41:50.748Z,24.73
2019-03-06T07:44:54.485Z,22.23
2019-03-06T07:47:37.677Z,20.90
2019-03-06T07:50:42.397Z,20.03
2019-03-06T07:54:02.785Z,21.80
2019-03-06T07:56:50.107Z,18.67
2019-03-06T07:59:19.362Z,19.07
2019-03-06T08:01:57.571Z,19.90
2019-03-06T08:04:27.262Z,17.27
2019-03-06T08:07:13.425Z,19.37
2019-03-06T08:09:42.786Z,18.83
2019-03-06T08:12:29.742Z,17.27
2019-03-06T08:15:17.060Z,18.10
2019-03-06T08:18:08.486Z,20.27
2019-03-06T08:20:56.505Z,17.73
2019-03-06T08:23:45.616Z,16.30
2019-03-06T08:26:17.026Z,16.97
2019-03-06T08:28:49.483Z,16.27
2019-03-06T08:31:27.220Z,16.03
2019-03-06T08:33:56.583Z,16.40
2019-03-06T08:36:25.914Z,17.70
2019-03-06T08:38:55.765Z,15.17
2019-03-06T08:41:27.142Z,14.50
2019-03-06T08:43:56.337Z,14.57
2019-03-06T08:46:47.407Z,15.67
2019-03-06T08:49:41.824Z,15.70
2019-03-06T08:52:48.318Z,13.70
2019-03-06T08:55:42.703Z,17.50
2019-03-06T08:58:37.094Z,17.23
2019-03-06T09:02:01.333Z,13.80
2019-03-06T09:04:48.282Z,16.63
2019-03-06T09:07:40.003Z,12.97
2019-03-06T09:10:47.891Z,14.63
2019-03-06T09:13:42.063Z,12.63
2019-03-06T09:16:39.403Z,14.40
2019-03-06T09:19:26.252Z,12.20
2019-03-06T09:22:01.442Z,13.90
2019-03-06T09:25:04.624Z,11.53
2019-03-06T09:27:37.925Z,13.20
2019-03-06T09:30:25.058Z,12.80
2019-03-06T09:33:09.462Z,11.93
2019-03-06T09:36:09.707Z,12.17
2019-03-06T09:38:57.975Z,12.17
2019-03-06T09:41:49.178Z,12.63
2019-03-06T09:44:24.722Z,11.90
2019-03-06T09:47:25.309Z,11.87
2019-03-06T09:56:46.979Z,11.77
2019-03-06T09:59:33.225Z,11.27
2019-03-06T10:02:24.627Z,13.10
2019-03-06T10:04:59.185Z,11.23
2019-03-06T10:07:38.472Z,14.50
2019-03-06T10:10:47.622Z,12.10
2019-03-06T10:13:42.100Z,10.13
2019-03-06T10:16:23.249Z,12.53
2019-03-06T10:19:04.402Z,9.77
2019-03-06T10:21:33.659Z,10.00
2019-03-06T10:24:03.046Z,11.60
2019-03-06T10:26:32.278Z,12.47
2019-03-06T10:29:01.648Z,11.40
2019-03-06T10:31:30.904Z,12.73
2019-03-06T10:34:00.266Z,10.10
2019-03-06T10:36:29.629Z,9.73
2019-03-06T10:38:58.889Z,11.57
2019-03-06T10:41:28.246Z,13.33
2019-03-06T10:43:57.479Z,10.77
2019-03-06T10:46:27.646Z,9.57
2019-03-06T10:48:57.007Z,10.43
2019-03-06T10:51:26.850Z,9.67
2019-03-06T10:53:56.222Z,9.27
2019-03-06T10:56:25.592Z,9.47
2019-03-06T10:58:55.569Z,9.00
2019-03-06T11:01:24.971Z,10.23
2019-03-06T11:04:16.074Z,12.37
2019-03-06T11:06:45.586Z,9.30
2019-03-06T11:09:15.191Z,10.30
2019-03-06T11:11:44.571Z,10.77
2019-03-06T11:14:14.078Z,9.63
2019-03-06T11:16:44.469Z,11.63
2019-03-06T11:19:14.374Z,13.37
2019-03-06T11:21:44.938Z,14.60
2019-03-06T11:24:14.285Z,11.07
2019-03-06T11:26:43.853Z,11.93
2019-03-06T11:29:13.786Z,12.20
2019-03-06T11:31:43.259Z,11.37
2019-03-06T11:34:12.703Z,14.60
2019-03-06T11:36:42.284Z,11.30
2019-03-06T11:39:12.677Z,13.90
2019-03-06T11:41:42.162Z,11.83
2019-03-06T11:44:11.730Z,15.30
2019-03-06T11:46:42.255Z,11.67
2019-03-06T11:49:11.600Z,10.37
2019-03-06T11:51:40.987Z,9.77
2019-03-06T11:54:10.524Z,14.00
2019-03-06T11:56:40.784Z,9.73
2019-03-06T11:59:10.200Z,10.37
2019-03-06T12:01:47.679Z,8.80
2019-03-06T12:04:13.598Z,8.70
2019-03-06T12:06:42.950Z,10.03
2019-03-06T12:09:31.185Z,9.80
2019-03-06T12:12:01.532Z,9.47
2019-03-06T12:14:30.943Z,9.03
2019-03-06T12:17:00.486Z,12.63
2019-03-06T12:19:30.273Z,9.23
2019-03-06T12:21:59.526Z,11.93
2019-03-06T12:24:28.831Z,10.50
2019-03-06T12:26:58.202Z,11.77
2019-03-06T12:29:27.899Z,12.20
2019-03-06T12:31:57.274Z,12.23
2019-03-06T12:34:26.746Z,9.80
2019-03-06T12:36:56.071Z,12.40
2019-03-06T12:39:25.583Z,9.13
2019-03-06T12:41:54.947Z,9.10
2019-03-06T12:44:24.281Z,10.80
2019-03-06T12:46:55.362Z,9.20
2019-03-06T12:49:27.312Z,8.53
2019-03-06T12:51:56.694Z,9.17
2019-03-06T12:54:27.430Z,8.63
2019-03-06T12:56:56.833Z,8.53
2019-03-06T12:59:28.241Z,8.27
2019-03-06T13:01:57.304Z,9.97
2019-03-06T13:04:26.701Z,10.63
2019-03-06T13:06:56.014Z,8.17
2019-03-06T13:09:25.340Z,7.57
2019-03-06T13:11:54.646Z,7.67
2019-03-06T13:14:24.257Z,8.40
2019-03-06T13:16:54.478Z,8.27
2019-03-06T13:19:23.778Z,11.33
2019-03-06T13:21:53.087Z,8.30
2019-03-06T13:24:22.615Z,7.47
2019-03-06T13:26:51.950Z,7.67
2019-03-06T13:29:21.343Z,7.07
2019-03-06T13:31:52.841Z,8.40
2019-03-06T13:34:39.894Z,7.90
2019-03-06T13:37:09.189Z,7.20
2019-03-06T13:39:38.658Z,7.43
2019-03-06T13:42:09.218Z,10.13
2019-03-06T13:44:38.460Z,8.13
2019-03-06T13:47:07.833Z,6.33
2019-03-06T13:49:37.088Z,5.43
2019-03-06T13:52:06.345Z,5.17
2019-03-06T13:54:35.665Z,7.57
2019-03-06T13:57:05.336Z,5.27
2019-03-06T13:59:34.612Z,5.70
2019-03-06T14:02:04.286Z,5.30
2019-03-06T14:04:33.669Z,5.00
2019-03-06T14:07:02.949Z,8.13
2019-03-06T14:09:32.511Z,6.53
2019-03-06T14:12:02.179Z,7.90
2019-03-06T14:14:31.568Z,4.50
2019-03-06T14:17:00.849Z,5.57
2019-03-06T14:19:30.159Z,4.37
2019-03-06T14:21:59.954Z,4.67
2019-03-06T14:24:29.802Z,4.13
2019-03-06T14:26:59.222Z,6.70
2019-03-06T14:29:28.724Z,5.90
2019-03-06T14:31:58.106Z,4.47
2019-03-06T14:34:27.360Z,5.17
2019-03-06T14:36:56.931Z,4.97
2019-03-06T14:39:30.851Z,4.53
2019-03-06T14:42:00.935Z,4.97
2019-03-06T14:44:30.305Z,5.20
2019-03-06T14:46:59.643Z,5.03
2019-03-06T14:49:30.400Z,4.07
2019-03-06T14:52:07.000Z,4.57
2019-03-06T14:54:31.494Z,4.40
2019-03-06T14:57:00.765Z,5.20
2019-03-06T14:59:30.096Z,4.90
2019-03-06T15:01:59.395Z,5.03
2019-03-06T15:04:28.939Z,4.80
2019-03-06T15:06:58.276Z,5.00
2019-03-06T15:09:28.297Z,4.77
2019-03-06T15:11:57.575Z,3.13
2019-03-06T15:14:35.498Z,4.17
2019-03-06T15:16:57.955Z,3.60
2019-03-06T15:19:27.311Z,4.70
2019-03-06T15:21:56.654Z,4.20
2019-03-06T15:24:27.877Z,3.83
2019-03-06T15:26:57.397Z,4.50
2019-03-06T15:29:26.977Z,3.10
2019-03-06T15:31:56.665Z,3.07
2019-03-06T15:34:27.987Z,3.30
2019-03-06T15:36:57.478Z,5.07
2019-03-06T15:39:29.434Z,5.33
2019-03-06T15:42:00.671Z,4.37
2019-03-06T15:44:29.985Z,5.53
2019-03-06T15:46:59.512Z,6.57
2019-03-06T15:49:29.751Z,7.20
2019-03-06T15:51:59.198Z,4.70
2019-03-06T15:54:30.181Z,5.23
2019-03-06T15:56:59.749Z,5.60
2019-03-06T15:59:29.629Z,20.17
2019-03-06T16:02:00.144Z,66.57
2019-03-06T16:04:50.836Z,23.03
2019-03-06T16:07:20.603Z,9.40
2019-03-06T16:09:50.063Z,7.70
2019-03-06T16:12:19.590Z,7.90
2019-03-06T16:14:51.024Z,8.17
2019-03-06T16:17:21.367Z,7.23
2019-03-06T16:19:51.323Z,6.93
2019-03-06T16:22:20.814Z,6.00
2019-03-06T16:24:50.948Z,7.33
2019-03-06T16:27:20.968Z,6.47
2019-03-06T16:29:50.508Z,11.97
2019-03-06T16:32:19.924Z,11.07
2019-03-06T16:34:50.028Z,43.70
2019-03-06T16:37:19.514Z,56.87
2019-03-06T16:39:48.963Z,40.33
2019-03-06T16:42:18.441Z,28.57
2019-03-06T16:44:47.897Z,16.80
2019-03-06T16:47:17.315Z,19.47
2019-03-06T16:49:46.722Z,16.60
2019-03-06T16:52:16.102Z,10.67
2019-03-06T16:54:45.613Z,12.63
2019-03-06T16:57:15.088Z,12.30
2019-03-06T16:59:44.531Z,12.07
2019-03-06T17:02:14.261Z,13.30
2019-03-06T17:04:43.783Z,13.20
2019-03-06T17:07:13.118Z,12.03
2019-03-06T17:09:42.506Z,13.67
2019-03-06T17:12:12.018Z,10.77
2019-03-06T17:14:41.514Z,17.33
2019-03-06T17:17:11.154Z,18.13
2019-03-06T17:19:41.091Z,16.00
2019-03-06T17:22:10.525Z,11.97
2019-03-06T17:24:40.134Z,15.67
2019-03-06T17:27:09.498Z,18.37
2019-03-06T17:29:39.303Z,15.90
2019-03-06T17:32:08.739Z,17.50
2019-03-06T17:34:38.279Z,15.40
2019-03-06T17:37:07.674Z,15.93
2019-03-06T17:39:37.397Z,15.00
2019-03-06T17:42:07.173Z,17.47
2019-03-06T17:44:36.691Z,22.73
2019-03-06T17:47:06.465Z,22.77
2019-03-06T17:49:35.921Z,34.13
2019-03-06T17:52:08.944Z,33.07
2019-03-06T17:54:38.366Z,23.90
2019-03-06T17:57:07.820Z,21.73
2019-03-06T17:59:37.301Z,22.20
2019-03-06T18:02:06.906Z,21.67
2019-03-06T18:04:36.514Z,25.23
2019-03-06T18:07:06.213Z,31.10
2019-03-06T18:09:35.887Z,25.40
2019-03-06T18:12:05.862Z,43.70
2019-03-06T18:14:35.455Z,37.90
2019-03-06T18:17:04.866Z,38.43
2019-03-06T18:19:34.239Z,51.43
2019-03-06T18:22:04.662Z,43.70
2019-03-06T18:24:34.066Z,32.07
2019-03-06T18:27:03.628Z,33.70
2019-03-06T18:29:33.135Z,43.60
2019-03-06T18:32:02.536Z,149.03
2019-03-06T18:34:31.990Z,181.33
2019-03-06T18:37:01.287Z,179.07
2019-03-06T18:39:30.603Z,139.67
2019-03-06T18:42:00.032Z,156.80
2019-03-06T18:44:29.409Z,127.93
2019-03-06T18:46:58.740Z,65.57
2019-03-06T18:49:28.135Z,52.37
2019-03-06T18:51:57.443Z,42.83
2019-03-06T18:54:26.851Z,42.33
2019-03-06T18:56:56.708Z,43.20
2019-03-06T18:59:26.279Z,43.03
2019-03-06T19:01:55.658Z,42.63
2019-03-06T19:04:26.371Z,49.67
2019-03-06T19:06:56.002Z,43.50
2019-03-06T19:09:25.758Z,47.87
2019-03-06T19:11:55.028Z,46.17
2019-03-06T19:14:24.550Z,44.20
2019-03-06T19:16:53.989Z,49.97
2019-03-06T19:19:23.541Z,54.40
2019-03-06T19:21:53.078Z,51.40
2019-03-06T19:24:22.662Z,52.83
2019-03-06T19:26:52.449Z,55.83
2019-03-06T19:29:21.833Z,56.37
2019-03-06T19:31:51.248Z,58.30
2019-03-06T19:34:20.675Z,57.40
2019-03-06T19:36:50.300Z,56.57
2019-03-06T19:39:19.997Z,52.70
2019-03-06T19:41:49.558Z,57.23
2019-03-06T19:44:18.987Z,54.97
2019-03-06T19:46:48.393Z,54.53
2019-03-06T19:49:17.933Z,56.67
2019-03-06T19:51:51.545Z,58.30
2019-03-06T19:54:18.748Z,58.93
2019-03-06T19:56:48.392Z,58.00
2019-03-06T19:59:17.878Z,57.77
2019-03-06T20:01:47.284Z,54.50
2019-03-06T20:04:16.825Z,59.37
2019-03-06T20:06:46.565Z,64.77
2019-03-06T20:09:27.330Z,67.67
2019-03-06T20:11:57.068Z,71.97
2019-03-06T20:14:26.501Z,69.97
2019-03-06T20:16:55.871Z,84.93
2019-03-06T20:19:28.207Z,77.50
2019-03-06T20:28:04.187Z,80.97
2019-03-06T20:30:33.561Z,79.57
2019-03-06T20:33:03.146Z,80.40
2019-03-06T20:35:32.574Z,75.77
2019-03-06T20:38:01.884Z,77.60
2019-03-06T20:40:31.630Z,78.00
2019-03-06T20:43:01.097Z,75.97
2019-03-06T20:45:30.547Z,69.03
2019-03-06T20:47:59.910Z,73.53
2019-03-06T20:50:29.305Z,70.97
2019-03-06T20:52:59.502Z,66.13
2019-03-06T20:55:28.912Z,73.67
2019-03-06T20:57:58.633Z,68.13
2019-03-06T21:00:28.428Z,66.17
2019-03-06T21:02:57.849Z,71.10
2019-03-06T21:05:27.409Z,76.03
2019-03-06T21:07:56.840Z,77.40
2019-03-06T21:10:26.295Z,71.63
2019-03-06T21:12:55.970Z,69.10
2019-03-06T21:15:28.242Z,65.63
2019-03-06T21:17:57.676Z,69.20
2019-03-06T21:20:27.179Z,66.37
2019-03-06T21:22:56.604Z,59.83
2019-03-06T21:25:26.027Z,68.00
2019-03-06T21:27:55.538Z,70.90
2019-03-06T21:30:29.646Z,78.73
2019-03-06T21:32:59.188Z,69.57
2019-03-06T21:35:28.630Z,69.40
2019-03-06T21:37:58.040Z,65.43
2019-03-06T21:40:28.169Z,58.93
2019-03-06T21:43:00.259Z,59.03
2019-03-06T21:45:29.889Z,59.53
2019-03-06T21:47:59.987Z,60.03
2019-03-06T21:50:29.917Z,56.07
2019-03-06T21:53:01.297Z,49.47
2019-03-06T21:55:31.183Z,50.70
2019-03-06T21:58:04.439Z,45.27
2019-03-06T22:00:34.363Z,49.63
2019-03-06T22:03:06.128Z,46.83
2019-03-06T22:05:36.036Z,46.80
2019-03-06T22:08:06.529Z,53.00
2019-03-06T22:10:36.736Z,52.43
2019-03-06T22:15:50.575Z,52.17
2019-03-06T22:18:20.565Z,56.00
2019-03-06T22:20:50.198Z,49.27
2019-03-06T22:23:19.916Z,51.30
2019-03-06T22:25:49.884Z,50.50
2019-03-06T22:28:20.573Z,53.67
2019-03-06T22:30:53.778Z,48.20
2019-03-06T22:33:25.270Z,49.17
2019-03-06T22:36:14.476Z,52.40
2019-03-06T22:38:43.940Z,49.20
2019-03-06T22:41:13.492Z,52.30
2019-03-06T22:43:43.330Z,49.30
2019-03-06T22:46:12.809Z,48.47
2019-03-06T22:48:42.306Z,48.43
2019-03-06T22:51:11.813Z,50.10
2019-03-06T22:53:41.298Z,47.17
2019-03-06T22:56:10.776Z,51.40
2019-03-06T22:58:40.358Z,46.30
2019-03-06T23:01:25.555Z,50.87
2019-03-06T23:03:56.527Z,47.27
2019-03-06T23:06:26.561Z,49.27
2019-03-06T23:08:56.003Z,45.23
2019-03-06T23:11:25.777Z,47.10
2019-03-06T23:13:55.306Z,52.87
2019-03-06T23:16:24.918Z,55.23
2019-03-06T23:18:54.373Z,47.37
2019-03-06T23:21:24.255Z,54.03
2019-03-06T23:23:53.850Z,48.90
2019-03-06T23:26:23.298Z,45.13
2019-03-06T23:28:52.768Z,47.03
2019-03-06T23:31:22.306Z,49.67
2019-03-06T23:33:52.196Z,42.67
2019-03-06T23:36:21.933Z,44.00
2019-03-06T23:38:51.670Z,39.63
2019-03-06T23:41:21.133Z,43.70
2019-03-06T23:43:50.727Z,41.63
2019-03-06T23:46:20.108Z,43.43
2019-03-06T23:48:49.735Z,42.63
2019-03-06T23:51:30.027Z,41.00
2019-03-06T23:53:59.477Z,40.63
2019-03-06T23:56:28.916Z,37.83
2019-03-06T23:58:58.522Z,39.73
